Accueil
METAR-TAF:

METAR-TAF

Aéroports :

Aéroport Châlons-Vatry

Châlons-en-Champagne, France

latitude: 48-46-34N, longitude: 004-11-04E, altitude: 179 m

Observation

Le bulletin a été fait il y a 34 minutes, à 19:30 UTC
Vent 10 kt de nord
Température 13°C
Humidité 82%
Pression 1024 hPa
Visibilité: 8000 m

METAR: LFOK 191930Z AUTO 36010KT 8000 NSC 13/10 Q1024 NOSIG

Heure: 22:04 (20:04 UTC)

Prévision

Le bulletin a été fait il y a 3 heures et 4 minutes, à 17:00 UTC
Prévision valable du 19 à 18 UTC au 20 à 18 UTC
Vent 7 kt de nord
Visibilité 10 km ou plus
pas de nuages en-dessous de 1500 mètres et pas de cumulonimbus.
Probabilité 30%
du 20 à 03 UTC au 20 à 07 UTC
Visibilité: 3000 m
brume

TAF: LFOK 191700Z 1918/2018 36007KT CAVOK PROB30 2003/2007 3000 BR

Observations et prévisions météorologiques de plus de 4000 aéroports (messages METAR et TAF).

Les stations disponibles sont représentées par des disques jaunes et rouges sur la carte.

Passer la souris dessus pour voir le nom de la station.

Cliquer dessus pour voir les observations et prévisions météorologiques.

Pour changer de carte: cliquez sur les boutons verts avec une croix noire pour zoomer, sur le bouton vert avec un tiret pour effectuer un zoom arrière, ou sur les flèches vertes pour les cartes adjacentes.


METAR-TAF: